createdAt,value
2019-05-18T00:01:51.787Z,15.73
2019-05-18T00:04:37.966Z,16.10
2019-05-18T00:07:24.081Z,16.57
2019-05-18T00:10:14.164Z,16.40
2019-05-18T00:13:00.670Z,16.30
2019-05-18T00:15:46.999Z,17.03
2019-05-18T00:18:33.402Z,15.80
2019-05-18T00:21:19.570Z,16.27
2019-05-18T00:24:05.858Z,15.83
2019-05-18T00:26:55.059Z,16.03
2019-05-18T00:29:41.321Z,15.07
2019-05-18T00:32:27.245Z,15.47
2019-05-18T00:35:16.532Z,14.83
2019-05-18T00:38:01.631Z,16.30
2019-05-18T00:40:47.821Z,15.77
2019-05-18T00:43:34.042Z,15.23
2019-05-18T00:46:20.176Z,14.80
2019-05-18T00:49:06.415Z,15.23
2019-05-18T00:51:52.631Z,15.70
2019-05-18T00:54:38.755Z,15.60
2019-05-18T00:57:24.886Z,16.73
2019-05-18T01:00:11.843Z,16.30
2019-05-18T01:02:57.702Z,16.43
2019-05-18T01:05:43.938Z,16.27
2019-05-18T01:08:30.117Z,16.33
2019-05-18T01:11:16.312Z,17.10
2019-05-18T01:14:02.580Z,15.67
2019-05-18T01:16:48.716Z,16.43
2019-05-18T01:19:34.759Z,16.77
2019-05-18T01:22:21.157Z,16.77
2019-05-18T01:25:07.297Z,17.10
2019-05-18T01:27:53.176Z,16.30
2019-05-18T01:30:39.454Z,16.97
2019-05-18T01:33:25.454Z,15.40
2019-05-18T01:36:11.635Z,16.93
2019-05-18T01:38:57.561Z,16.33
2019-05-18T01:41:43.861Z,15.90
2019-05-18T01:44:30.165Z,16.47
2019-05-18T01:47:16.285Z,15.67
2019-05-18T01:50:02.570Z,15.70
2019-05-18T01:52:48.860Z,17.37
2019-05-18T01:55:34.925Z,16.30
2019-05-18T01:58:21.059Z,16.63
2019-05-18T02:01:07.470Z,17.13
2019-05-18T02:03:53.337Z,18.10
2019-05-18T02:06:39.631Z,16.87
2019-05-18T02:09:25.781Z,17.03
2019-05-18T02:12:11.887Z,16.70
2019-05-18T02:14:58.021Z,16.93
2019-05-18T02:17:44.005Z,16.37
2019-05-18T02:20:30.200Z,16.90
2019-05-18T02:23:16.565Z,16.43
2019-05-18T02:26:02.721Z,16.40
2019-05-18T02:28:48.680Z,16.77
2019-05-18T02:31:34.923Z,16.10
2019-05-18T02:34:20.938Z,17.60
2019-05-18T02:37:07.158Z,15.80
2019-05-18T02:39:55.087Z,15.77
2019-05-18T02:42:41.303Z,17.40
2019-05-18T02:45:27.475Z,17.40
2019-05-18T02:48:13.695Z,17.10
2019-05-18T02:50:59.831Z,16.70
2019-05-18T02:53:46.032Z,16.23
2019-05-18T02:56:32.046Z,16.73
2019-05-18T02:59:18.138Z,16.53
2019-05-18T03:02:04.547Z,16.60
2019-05-18T03:04:50.545Z,16.83
2019-05-18T03:07:36.681Z,16.47
2019-05-18T03:10:23.032Z,17.53
2019-05-18T03:13:09.112Z,16.57
2019-05-18T03:15:55.385Z,15.87
2019-05-18T03:18:41.483Z,15.87
2019-05-18T03:21:27.673Z,16.87
2019-05-18T03:24:13.802Z,17.77
2019-05-18T03:26:59.851Z,16.03
2019-05-18T03:29:45.981Z,16.03
2019-05-18T03:32:32.337Z,15.00
2019-05-18T03:35:18.344Z,14.77
2019-05-18T03:38:04.640Z,15.90
2019-05-18T03:40:50.721Z,16.80
2019-05-18T03:43:36.742Z,15.90
2019-05-18T03:46:24.055Z,14.70
2019-05-18T03:49:25.240Z,15.07
2019-05-18T03:51:58.997Z,14.70
2019-05-18T03:54:45.038Z,14.37
2019-05-18T03:57:31.355Z,13.17
2019-05-18T04:00:17.544Z,15.00
2019-05-18T04:03:03.562Z,14.47
2019-05-18T04:05:49.697Z,13.73
2019-05-18T04:08:35.792Z,13.83
2019-05-18T04:11:22.089Z,13.53
2019-05-18T04:14:08.921Z,13.47
2019-05-18T04:16:57.397Z,12.80
2019-05-18T04:19:46.788Z,11.57
2019-05-18T04:22:31.813Z,12.17
2019-05-18T04:25:17.961Z,12.07
2019-05-18T04:28:04.117Z,11.87
2019-05-18T04:30:50.284Z,12.30
2019-05-18T04:33:36.372Z,11.53
2019-05-18T04:36:22.497Z,11.27
2019-05-18T04:39:08.716Z,11.47
2019-05-18T04:41:54.830Z,12.00
2019-05-18T04:44:41.022Z,12.00
2019-05-18T04:47:27.142Z,11.50
2019-05-18T04:50:13.400Z,11.50
2019-05-18T04:52:59.841Z,12.00
2019-05-18T04:55:45.883Z,12.50
2019-05-18T04:58:31.983Z,12.07
2019-05-18T05:01:18.283Z,12.13
2019-05-18T05:04:04.439Z,11.87
2019-05-18T05:06:50.506Z,11.80
2019-05-18T05:09:36.591Z,12.50
2019-05-18T05:12:22.741Z,11.50
2019-05-18T05:15:08.914Z,12.23
2019-05-18T05:17:54.966Z,12.07
2019-05-18T05:20:41.056Z,12.93
2019-05-18T05:23:27.370Z,14.47
2019-05-18T05:26:13.391Z,13.57
2019-05-18T05:28:59.711Z,14.10
2019-05-18T05:31:45.992Z,15.00
2019-05-18T05:34:32.270Z,15.00
2019-05-18T05:37:18.380Z,16.70
2019-05-18T05:40:05.300Z,16.27
2019-05-18T05:42:51.806Z,16.63
2019-05-18T05:45:38.030Z,15.50
2019-05-18T05:48:24.146Z,16.53
2019-05-18T05:51:10.251Z,17.07
2019-05-18T05:53:56.450Z,16.50
2019-05-18T05:56:42.471Z,16.50
2019-05-18T05:59:28.653Z,16.40
2019-05-18T06:02:14.781Z,16.60
2019-05-18T06:05:00.915Z,17.27
2019-05-18T06:07:46.966Z,17.53
2019-05-18T06:10:33.151Z,17.60
2019-05-18T06:13:19.126Z,16.33
2019-05-18T06:16:05.285Z,16.90
2019-05-18T06:18:51.406Z,17.17
2019-05-18T06:21:37.491Z,18.10
2019-05-18T06:24:23.847Z,17.83
2019-05-18T06:27:09.980Z,16.53
2019-05-18T06:29:58.390Z,18.47
2019-05-18T06:32:44.539Z,16.93
2019-05-18T06:35:30.706Z,17.37
2019-05-18T06:38:17.243Z,18.33
2019-05-18T06:41:03.362Z,18.33
2019-05-18T06:43:49.602Z,17.33
2019-05-18T06:46:35.827Z,18.07
2019-05-18T06:49:22.030Z,18.13
2019-05-18T06:52:08.045Z,17.13
2019-05-18T06:54:54.320Z,16.07
2019-05-18T06:57:40.206Z,16.80
2019-05-18T07:00:26.427Z,17.23
2019-05-18T07:03:12.535Z,17.20
2019-05-18T07:05:58.716Z,16.63
2019-05-18T07:08:44.899Z,17.13
2019-05-18T07:11:31.201Z,16.93
2019-05-18T07:14:25.371Z,17.47
2019-05-18T07:17:05.501Z,15.60
2019-05-18T07:19:51.746Z,17.13
2019-05-18T07:22:37.805Z,16.17
2019-05-18T07:25:23.999Z,16.73
2019-05-18T07:28:10.221Z,16.13
2019-05-18T07:30:56.315Z,16.17
2019-05-18T07:33:42.593Z,17.07
2019-05-18T07:36:28.748Z,17.80
2019-05-18T07:39:14.875Z,16.90
2019-05-18T07:42:00.960Z,17.07
2019-05-18T07:44:46.982Z,16.00
2019-05-18T07:47:33.100Z,15.80
2019-05-18T07:50:19.735Z,15.80
2019-05-18T07:53:05.600Z,14.90
2019-05-18T07:55:51.763Z,15.60
2019-05-18T07:58:37.984Z,14.87
2019-05-18T08:01:24.086Z,15.07
2019-05-18T08:04:10.285Z,14.93
2019-05-18T08:06:56.371Z,14.00
2019-05-18T08:09:42.650Z,14.23
2019-05-18T08:12:28.856Z,14.20
2019-05-18T08:15:14.991Z,13.17
2019-05-18T08:18:01.095Z,12.43
2019-05-18T08:20:47.602Z,13.07
2019-05-18T08:23:33.505Z,12.17
2019-05-18T08:26:19.711Z,11.93
2019-05-18T08:29:06.098Z,10.20
2019-05-18T08:31:52.235Z,11.30
2019-05-18T08:34:38.460Z,11.70
2019-05-18T08:37:24.546Z,11.77
2019-05-18T08:40:11.190Z,11.97
2019-05-18T08:42:57.156Z,12.17
2019-05-18T08:45:43.525Z,11.30
2019-05-18T08:48:29.315Z,10.70
2019-05-18T08:51:15.596Z,10.47
2019-05-18T08:54:01.706Z,11.67
2019-05-18T08:56:47.901Z,10.47
2019-05-18T08:59:34.205Z,10.13
2019-05-18T09:02:20.351Z,8.37
2019-05-18T09:05:06.830Z,8.40
2019-05-18T09:07:53.254Z,7.60
2019-05-18T09:10:39.493Z,6.17
2019-05-18T09:13:25.925Z,6.23
2019-05-18T09:16:12.242Z,6.03
2019-05-18T09:18:58.320Z,5.70
2019-05-18T09:21:44.651Z,5.17
2019-05-18T09:24:30.658Z,5.10
2019-05-18T09:27:16.767Z,4.30
2019-05-18T09:30:03.616Z,4.57
2019-05-18T09:32:49.877Z,5.70
2019-05-18T09:35:36.136Z,5.20
2019-05-18T09:38:22.627Z,3.70
2019-05-18T09:41:08.545Z,4.20
2019-05-18T09:43:54.731Z,3.33
2019-05-18T09:46:41.102Z,3.43
2019-05-18T09:49:27.206Z,3.63
2019-05-18T09:52:13.551Z,3.17
2019-05-18T09:54:59.340Z,4.10
2019-05-18T09:57:45.565Z,4.40
2019-05-18T10:00:38.427Z,3.80
2019-05-18T10:03:19.891Z,3.63
2019-05-18T10:06:06.219Z,3.90
2019-05-18T10:08:52.270Z,3.87
2019-05-18T10:11:38.888Z,3.83
2019-05-18T10:14:25.479Z,3.70
2019-05-18T10:17:11.736Z,3.53
2019-05-18T10:19:57.760Z,4.30
2019-05-18T10:22:55.586Z,3.73
2019-05-18T10:25:32.391Z,4.00
2019-05-18T10:28:18.611Z,3.83
2019-05-18T10:31:04.817Z,4.00
2019-05-18T10:33:51.121Z,4.47
2019-05-18T10:36:37.275Z,4.07
2019-05-18T10:39:23.356Z,3.63
2019-05-18T10:42:09.777Z,3.90
2019-05-18T10:44:55.945Z,4.00
2019-05-18T10:47:42.291Z,3.83
2019-05-18T10:50:28.496Z,3.23
2019-05-18T10:53:27.856Z,3.20
2019-05-18T10:56:02.746Z,3.30
2019-05-18T10:58:49.127Z,3.23
2019-05-18T11:01:35.211Z,3.73
2019-05-18T11:04:21.380Z,3.83
2019-05-18T11:07:07.501Z,3.23
2019-05-18T11:09:53.480Z,3.70
2019-05-18T11:12:39.980Z,3.70
2019-05-18T11:15:26.386Z,3.63
2019-05-18T11:18:12.649Z,3.60
2019-05-18T11:20:58.926Z,3.13
2019-05-18T11:23:47.987Z,3.70
2019-05-18T11:26:33.177Z,3.40
2019-05-18T11:29:22.950Z,3.47
2019-05-18T11:32:08.187Z,3.90
2019-05-18T11:34:54.194Z,4.13
2019-05-18T11:37:40.357Z,3.90
2019-05-18T11:40:26.496Z,3.70
2019-05-18T11:43:12.641Z,3.87
2019-05-18T11:45:58.750Z,3.70
2019-05-18T11:48:44.815Z,3.87
2019-05-18T11:51:30.831Z,3.77
2019-05-18T11:54:17.252Z,3.30
2019-05-18T11:57:03.173Z,2.80
2019-05-18T11:59:49.251Z,3.40
2019-05-18T12:02:35.340Z,3.20
2019-05-18T12:05:21.481Z,3.40
2019-05-18T12:08:07.646Z,3.30
2019-05-18T12:10:56.131Z,3.30
2019-05-18T12:13:41.752Z,3.50
2019-05-18T12:16:28.014Z,3.30
2019-05-18T12:19:14.132Z,3.23
2019-05-18T12:22:00.223Z,3.30
2019-05-18T12:24:46.587Z,2.93
2019-05-18T12:27:32.696Z,3.70
2019-05-18T12:30:19.096Z,2.63
2019-05-18T12:33:05.110Z,2.77
2019-05-18T12:35:51.091Z,2.53
2019-05-18T12:38:37.266Z,2.67
2019-05-18T12:41:29.041Z,2.10
2019-05-18T12:44:15.484Z,2.83
2019-05-18T12:47:01.590Z,2.80
2019-05-18T12:49:47.871Z,2.27
2019-05-18T12:52:33.990Z,2.43
2019-05-18T12:55:20.115Z,2.80
2019-05-18T12:58:06.700Z,3.73
2019-05-18T13:00:52.535Z,4.67
2019-05-18T13:03:38.749Z,4.20
2019-05-18T13:06:25.017Z,3.47
2019-05-18T13:09:11.130Z,4.00
2019-05-18T13:11:57.186Z,3.73
2019-05-18T13:14:43.317Z,3.90
2019-05-18T13:17:29.261Z,3.87
2019-05-18T13:20:17.194Z,3.97
2019-05-18T13:23:03.725Z,3.73
2019-05-18T13:25:49.750Z,3.20
2019-05-18T13:28:35.971Z,4.13
2019-05-18T13:31:22.079Z,3.50
2019-05-18T13:34:08.136Z,3.33
2019-05-18T13:36:54.456Z,3.50
2019-05-18T13:39:40.641Z,3.30
2019-05-18T13:42:26.651Z,3.37
2019-05-18T13:45:13.756Z,3.70
2019-05-18T13:47:59.515Z,3.60
2019-05-18T13:50:45.695Z,3.70
2019-05-18T13:53:31.883Z,4.00
2019-05-18T13:56:18.026Z,4.10
2019-05-18T13:59:04.191Z,3.77
2019-05-18T14:01:50.285Z,4.10
2019-05-18T14:04:36.371Z,3.43
2019-05-18T14:07:22.503Z,3.67
2019-05-18T14:10:12.430Z,3.77
2019-05-18T14:12:58.152Z,3.40
2019-05-18T14:15:44.448Z,3.83
2019-05-18T14:18:30.526Z,3.93
2019-05-18T14:21:16.565Z,3.47
2019-05-18T14:24:02.842Z,3.13
2019-05-18T14:26:48.912Z,3.90
2019-05-18T14:29:35.128Z,3.27
2019-05-18T14:32:21.436Z,3.77
2019-05-18T14:35:07.560Z,3.23
2019-05-18T14:37:53.761Z,3.40
2019-05-18T14:40:40.394Z,3.00
2019-05-18T14:43:26.413Z,3.53
2019-05-18T14:46:12.666Z,3.97
2019-05-18T14:48:58.851Z,3.20
2019-05-18T14:51:44.993Z,3.67
2019-05-18T14:54:31.220Z,3.33
2019-05-18T14:57:17.190Z,3.37
2019-05-18T15:00:03.747Z,3.70
2019-05-18T15:02:50.265Z,3.60
2019-05-18T15:05:38.682Z,3.40
2019-05-18T15:08:24.462Z,4.27
2019-05-18T15:11:11.906Z,3.50
2019-05-18T15:13:57.928Z,3.37
2019-05-18T15:16:43.983Z,3.70
2019-05-18T15:19:30.106Z,3.40
2019-05-18T15:22:16.147Z,3.67
2019-05-18T15:25:02.357Z,3.70
2019-05-18T15:27:48.597Z,3.97
2019-05-18T15:30:34.670Z,3.80
2019-05-18T15:33:21.037Z,3.80
2019-05-18T15:36:07.260Z,4.60
2019-05-18T15:38:53.440Z,4.00
2019-05-18T15:41:39.776Z,4.20
2019-05-18T15:44:25.881Z,3.90
2019-05-18T15:47:11.936Z,4.60
2019-05-18T15:49:58.310Z,4.30
2019-05-18T15:52:44.255Z,4.20
2019-05-18T15:55:30.385Z,4.50
2019-05-18T15:58:16.742Z,4.17
2019-05-18T16:01:02.811Z,3.47
2019-05-18T16:03:48.945Z,3.60
2019-05-18T16:06:35.121Z,4.10
2019-05-18T16:09:21.243Z,4.17
2019-05-18T16:12:07.442Z,4.87
2019-05-18T16:14:53.405Z,3.80
2019-05-18T16:17:40.437Z,4.37
2019-05-18T16:20:27.005Z,3.90
2019-05-18T16:23:13.045Z,4.07
2019-05-18T16:25:59.240Z,4.27
2019-05-18T16:28:45.426Z,4.00
2019-05-18T16:31:31.606Z,4.47
2019-05-18T16:34:17.734Z,4.10
2019-05-18T16:37:03.928Z,4.60
2019-05-18T16:39:50.042Z,4.43
2019-05-18T16:42:36.336Z,4.60
2019-05-18T16:45:22.631Z,4.07
2019-05-18T16:48:08.411Z,3.90
2019-05-18T16:50:54.655Z,4.27
2019-05-18T16:53:40.785Z,3.80
2019-05-18T16:56:34.920Z,3.80
2019-05-18T16:59:15.301Z,4.00
2019-05-18T17:02:01.382Z,4.30
2019-05-18T17:04:47.380Z,4.10
2019-05-18T17:07:33.780Z,4.10
2019-05-18T17:10:20.141Z,3.90
2019-05-18T17:13:05.940Z,4.13
2019-05-18T17:15:52.266Z,4.30
2019-05-18T17:18:38.266Z,3.87
2019-05-18T17:21:24.661Z,4.20
2019-05-18T17:24:10.841Z,4.47
2019-05-18T17:26:56.934Z,4.13
2019-05-18T17:29:42.950Z,3.60
2019-05-18T17:32:28.970Z,4.00
2019-05-18T17:35:15.173Z,4.00
2019-05-18T17:38:01.318Z,3.90
2019-05-18T17:40:47.380Z,3.50
2019-05-18T17:43:33.419Z,3.33
2019-05-18T17:46:19.740Z,3.60
2019-05-18T17:49:05.946Z,3.43
2019-05-18T17:51:52.106Z,3.17
2019-05-18T17:54:38.045Z,2.83
2019-05-18T17:57:24.095Z,2.90
2019-05-18T18:00:11.591Z,2.90
2019-05-18T18:02:57.337Z,3.43
2019-05-18T18:05:43.590Z,3.60
2019-05-18T18:08:29.702Z,3.20
2019-05-18T18:11:15.981Z,3.30
2019-05-18T18:14:02.029Z,2.80
2019-05-18T18:16:48.360Z,2.60
2019-05-18T18:19:34.388Z,2.80
2019-05-18T18:22:23.735Z,2.60
2019-05-18T18:25:08.831Z,3.00
2019-05-18T18:27:54.696Z,2.50
2019-05-18T18:30:41.007Z,2.67
2019-05-18T18:33:27.144Z,2.77
2019-05-18T18:36:13.545Z,2.53
2019-05-18T18:39:01.917Z,2.87
2019-05-18T18:41:55.527Z,2.70
2019-05-18T18:44:42.105Z,3.00
2019-05-18T18:47:28.166Z,3.00
2019-05-18T18:50:15.441Z,2.83
2019-05-18T18:53:01.606Z,3.23
2019-05-18T18:55:47.676Z,3.33
2019-05-18T18:58:33.821Z,3.73
2019-05-18T19:01:20.207Z,3.53
2019-05-18T19:04:06.201Z,3.90
2019-05-18T19:06:52.921Z,3.53
2019-05-18T19:09:39.221Z,3.90
2019-05-18T19:12:25.266Z,3.70
2019-05-18T19:15:11.672Z,3.83
2019-05-18T19:17:57.495Z,3.63
2019-05-18T19:20:43.543Z,4.00
2019-05-18T19:23:29.738Z,3.70
2019-05-18T19:26:15.815Z,3.93
2019-05-18T19:29:01.831Z,3.97
2019-05-18T19:31:48.142Z,3.80
2019-05-18T19:34:34.166Z,4.07
2019-05-18T19:37:20.311Z,4.77
2019-05-18T19:40:06.713Z,4.40
2019-05-18T19:42:53.086Z,4.60
2019-05-18T19:45:40.291Z,4.40
2019-05-18T19:48:26.515Z,4.23
2019-05-18T19:51:15.836Z,3.80
2019-05-18T19:54:00.422Z,4.20
2019-05-18T19:56:46.992Z,4.40
2019-05-18T19:59:33.718Z,4.00
2019-05-18T20:02:19.946Z,4.00
2019-05-18T20:05:08.654Z,3.90
2019-05-18T20:07:54.829Z,4.20
2019-05-18T20:10:40.926Z,4.37
2019-05-18T20:13:27.106Z,4.60
2019-05-18T20:16:13.141Z,4.27
2019-05-18T20:18:59.516Z,4.77
2019-05-18T20:21:45.666Z,4.50
2019-05-18T20:24:31.740Z,5.10
2019-05-18T20:27:17.992Z,5.03
2019-05-18T20:30:04.306Z,5.13
2019-05-18T20:32:50.273Z,4.93
2019-05-18T20:35:36.693Z,4.80
2019-05-18T20:38:22.806Z,5.27
2019-05-18T20:41:09.023Z,5.07
2019-05-18T20:43:55.380Z,5.77
2019-05-18T20:46:41.426Z,5.60
2019-05-18T20:49:27.671Z,4.93
2019-05-18T20:52:13.770Z,5.17
2019-05-18T20:54:59.941Z,5.37
2019-05-18T20:57:46.221Z,5.77
2019-05-18T21:00:32.250Z,6.07
2019-05-18T21:03:18.485Z,5.90
2019-05-18T21:06:04.695Z,6.47
2019-05-18T21:08:50.666Z,6.20
2019-05-18T21:11:36.791Z,5.77
2019-05-18T21:14:23.080Z,6.13
2019-05-18T21:17:09.156Z,6.80
2019-05-18T21:19:55.281Z,6.70
2019-05-18T21:22:41.321Z,5.90
2019-05-18T21:25:27.325Z,6.90
2019-05-18T21:28:13.417Z,6.50
2019-05-18T21:30:59.522Z,6.93
2019-05-18T21:33:45.755Z,6.73
2019-05-18T21:36:32.269Z,6.70
2019-05-18T21:39:18.361Z,8.17
2019-05-18T21:42:04.505Z,8.70
2019-05-18T21:44:50.862Z,7.63
2019-05-18T21:47:36.920Z,9.23
2019-05-18T21:50:23.265Z,8.73
2019-05-18T21:53:09.330Z,9.77
2019-05-18T21:55:55.545Z,8.87
2019-05-18T21:58:41.920Z,9.53
2019-05-18T22:01:27.995Z,9.57
2019-05-18T22:04:14.153Z,11.27
2019-05-18T22:07:00.502Z,10.20
2019-05-18T22:09:46.571Z,10.37
2019-05-18T22:12:32.633Z,10.27
2019-05-18T22:15:18.976Z,10.00
2019-05-18T22:18:05.317Z,10.40
2019-05-18T22:20:51.631Z,9.77
2019-05-18T22:23:37.990Z,9.87
2019-05-18T22:26:24.062Z,10.20
2019-05-18T22:29:10.330Z,9.87
2019-05-18T22:31:56.260Z,9.83
2019-05-18T22:34:42.555Z,8.70
2019-05-18T22:37:28.701Z,8.40
2019-05-18T22:40:14.780Z,9.57
2019-05-18T22:43:00.860Z,9.93
2019-05-18T22:45:47.187Z,9.43
2019-05-18T22:48:41.460Z,9.17
2019-05-18T22:51:21.356Z,9.07
2019-05-18T22:54:07.706Z,9.77
2019-05-18T22:56:53.820Z,9.17
2019-05-18T22:59:40.006Z,10.00
2019-05-18T23:02:26.237Z,9.13
2019-05-18T23:05:12.543Z,8.63
2019-05-18T23:07:58.602Z,8.43
2019-05-18T23:10:44.658Z,8.37
2019-05-18T23:13:30.760Z,10.10
2019-05-18T23:16:16.996Z,8.53
2019-05-18T23:19:03.125Z,8.60
2019-05-18T23:21:49.133Z,8.87
2019-05-18T23:24:35.363Z,9.60
2019-05-18T23:27:21.406Z,10.03
2019-05-18T23:30:08.090Z,8.87
2019-05-18T23:32:54.286Z,9.80
2019-05-18T23:35:40.381Z,8.30
2019-05-18T23:38:26.521Z,9.50
2019-05-18T23:41:12.662Z,9.40
2019-05-18T23:43:58.690Z,8.67
2019-05-18T23:46:44.976Z,7.17
2019-05-18T23:49:31.073Z,8.20
2019-05-18T23:52:17.300Z,7.17
2019-05-18T23:55:04.340Z,8.37
2019-05-18T23:57:50.691Z,7.83
